Notes:

SPECI SBKP 150720Z 12009KT 0600 R15R/P2000 R33L/P2000 FG VV001 12/12 Q1020=

Photographer

Contact photographer for terms of use.
Contact photographer for terms of use.

Comments

No comments